createdAt,value
2023-03-04T00:00:52.918Z,50.10
2023-03-04T00:01:53.196Z,50.20
2023-03-04T00:02:53.558Z,50.40
2023-03-04T00:03:53.938Z,49.10
2023-03-04T00:04:54.113Z,49.80
2023-03-04T00:05:54.449Z,49.20
2023-03-04T00:06:54.784Z,50.30
2023-03-04T00:07:55.085Z,51.10
2023-03-04T00:08:55.471Z,50.70
2023-03-04T00:09:55.689Z,51.30
2023-03-04T00:10:55.915Z,51.70
2023-03-04T00:11:56.150Z,52.00
2023-03-04T00:12:56.533Z,52.10
2023-03-04T00:13:56.882Z,52.20
2023-03-04T00:14:57.119Z,51.70
2023-03-04T00:15:57.350Z,51.90
2023-03-04T00:16:57.661Z,50.70
2023-03-04T00:17:57.864Z,53.60
2023-03-04T00:18:58.229Z,51.20
2023-03-04T00:19:58.536Z,52.10
2023-03-04T00:20:58.834Z,51.80
2023-03-04T00:21:59.018Z,53.00
2023-03-04T00:22:59.330Z,51.90
2023-03-04T00:23:59.727Z,52.50
2023-03-04T00:24:59.932Z,51.50
2023-03-04T00:26:00.247Z,53.00
2023-03-04T00:27:00.779Z,52.20
2023-03-04T00:28:00.852Z,52.40
2023-03-04T00:29:01.248Z,52.00
2023-03-04T00:30:01.433Z,51.70
2023-03-04T00:31:01.806Z,51.60
2023-03-04T00:32:02.120Z,52.00
2023-03-04T00:33:02.413Z,52.10
2023-03-04T00:34:02.664Z,53.10
2023-03-04T00:35:03.085Z,52.20
2023-03-04T00:36:03.306Z,52.40
2023-03-04T00:37:03.679Z,52.80
2023-03-04T00:38:03.845Z,52.90
2023-03-04T00:39:04.132Z,53.30
2023-03-04T00:40:04.417Z,52.30
2023-03-04T00:41:04.766Z,52.60
2023-03-04T00:42:05.080Z,52.80
2023-03-04T00:43:05.361Z,53.60
2023-03-04T00:44:05.530Z,53.70
2023-03-04T00:45:05.883Z,52.60
2023-03-04T00:46:06.174Z,53.80
2023-03-04T00:47:06.591Z,52.40
2023-03-04T00:48:06.826Z,53.30
2023-03-04T00:49:07.065Z,52.40
2023-03-04T00:50:07.258Z,53.40
2023-03-04T00:51:07.552Z,53.50
2023-03-04T00:52:07.839Z,54.00
2023-03-04T00:53:08.191Z,54.90
2023-03-04T00:54:08.489Z,53.10
2023-03-04T00:55:08.686Z,54.10
2023-03-04T00:56:09.029Z,54.50
2023-03-04T00:57:09.287Z,54.30
2023-03-04T00:58:09.500Z,54.80
2023-03-04T00:59:09.827Z,55.30
2023-03-04T01:00:11.001Z,54.10
2023-03-04T01:01:10.490Z,54.00
2023-03-04T01:02:10.763Z,53.80
2023-03-04T01:03:11.091Z,55.00
2023-03-04T01:04:11.314Z,53.90
2023-03-04T01:05:11.540Z,55.30
2023-03-04T01:06:11.772Z,54.30
2023-03-04T01:07:11.988Z,56.20
2023-03-04T01:08:12.300Z,55.50
2023-03-04T01:09:12.641Z,54.80
2023-03-04T01:10:12.794Z,54.30
2023-03-04T01:11:13.160Z,54.20
2023-03-04T01:12:13.408Z,55.90
2023-03-04T01:13:13.794Z,55.00
2023-03-04T01:14:14.143Z,55.30
2023-03-04T01:15:14.350Z,53.50
2023-03-04T01:16:14.802Z,54.80
2023-03-04T01:17:14.982Z,57.20
2023-03-04T01:18:15.198Z,54.80
2023-03-04T01:19:15.587Z,56.10
2023-03-04T01:20:15.781Z,55.70
2023-03-04T01:21:16.096Z,55.70
2023-03-04T01:22:16.358Z,57.50
2023-03-04T01:23:16.785Z,55.00
2023-03-04T01:24:17.073Z,55.30
2023-03-04T01:25:17.388Z,56.20
2023-03-04T01:26:17.615Z,56.60
2023-03-04T01:27:17.980Z,55.10
2023-03-04T01:28:18.182Z,55.40
2023-03-04T01:29:18.479Z,56.10
2023-03-04T01:30:19.171Z,56.00
2023-03-04T01:31:19.030Z,55.60
2023-03-04T01:32:19.315Z,55.70
2023-03-04T01:33:19.913Z,56.00
2023-03-04T01:34:19.983Z,56.60
2023-03-04T01:35:20.767Z,55.30
2023-03-04T01:36:20.656Z,55.70
2023-03-04T01:37:20.976Z,55.20
2023-03-04T01:38:21.321Z,55.90
2023-03-04T01:39:21.660Z,56.20
2023-03-04T01:40:21.992Z,55.40
2023-03-04T01:41:22.244Z,56.10
2023-03-04T01:42:22.573Z,54.30
2023-03-04T01:43:22.833Z,55.90
2023-03-04T01:44:23.052Z,55.00
2023-03-04T01:45:23.316Z,56.60
2023-03-04T01:46:23.548Z,55.20
2023-03-04T01:47:23.864Z,56.10
2023-03-04T01:48:24.112Z,57.40
2023-03-04T01:49:24.390Z,57.40
2023-03-04T01:50:24.652Z,56.90
2023-03-04T01:51:24.995Z,56.00
2023-03-04T01:52:25.176Z,57.30
2023-03-04T01:53:25.586Z,57.10
2023-03-04T01:54:25.781Z,56.80
2023-03-04T01:55:26.049Z,56.10
2023-03-04T01:56:26.238Z,56.00
2023-03-04T01:57:26.510Z,55.60
2023-03-04T01:58:26.710Z,55.00
2023-03-04T01:59:27.065Z,55.90
2023-03-04T02:00:27.285Z,55.10
2023-03-04T02:01:27.650Z,56.80
2023-03-04T02:02:27.854Z,56.90
2023-03-04T02:03:28.273Z,55.80
2023-03-04T02:04:29.426Z,55.20
2023-03-04T02:05:28.768Z,56.80
2023-03-04T02:06:29.144Z,56.90
2023-03-04T02:07:29.350Z,55.90
2023-03-04T02:08:29.691Z,56.20
2023-03-04T02:09:30.060Z,56.90
2023-03-04T02:10:30.336Z,57.00
2023-03-04T02:11:30.608Z,56.50
2023-03-04T02:12:30.845Z,56.40
2023-03-04T02:13:31.190Z,56.60
2023-03-04T02:14:31.397Z,56.40
2023-03-04T02:15:31.719Z,56.10
2023-03-04T02:16:32.052Z,56.80
2023-03-04T02:17:32.407Z,56.50
2023-03-04T02:18:32.622Z,56.90
2023-03-04T02:19:33.305Z,56.70
2023-03-04T02:20:33.086Z,57.00
2023-03-04T02:21:33.399Z,57.30
2023-03-04T02:22:33.629Z,57.50
2023-03-04T02:23:33.942Z,58.10
2023-03-04T02:24:34.235Z,58.30
2023-03-04T02:25:34.501Z,58.70
2023-03-04T02:26:34.684Z,57.40
2023-03-04T02:27:35.057Z,56.90
2023-03-04T02:28:35.246Z,58.20
2023-03-04T02:29:35.507Z,58.10
2023-03-04T02:30:35.824Z,57.80
2023-03-04T02:31:36.158Z,58.60
2023-03-04T02:32:36.382Z,56.90
2023-03-04T02:33:36.608Z,57.80
2023-03-04T02:34:36.932Z,57.20
2023-03-04T02:35:37.324Z,57.40
2023-03-04T02:36:37.509Z,57.40
2023-03-04T02:37:37.811Z,56.30
2023-03-04T02:38:37.997Z,57.30
2023-03-04T02:39:38.305Z,57.40
2023-03-04T02:40:38.555Z,57.50
2023-03-04T02:41:38.768Z,58.00
2023-03-04T02:42:39.142Z,58.30
2023-03-04T02:43:39.349Z,57.10
2023-03-04T02:44:39.692Z,55.90
2023-03-04T02:45:39.983Z,57.60
2023-03-04T02:46:40.286Z,56.40
2023-03-04T02:47:40.550Z,58.20
2023-03-04T02:48:40.768Z,57.50
2023-03-04T02:49:41.129Z,56.60
2023-03-04T02:50:41.442Z,56.60
2023-03-04T02:51:41.699Z,56.90
2023-03-04T02:52:41.988Z,55.70
2023-03-04T02:53:42.387Z,56.90
2023-03-04T02:54:42.621Z,57.00
2023-03-04T02:55:42.957Z,56.60
2023-03-04T02:56:43.124Z,57.00
2023-03-04T02:57:43.534Z,57.20
2023-03-04T02:58:43.747Z,56.00
2023-03-04T02:59:44.104Z,57.80
2023-03-04T03:00:44.269Z,56.50
2023-03-04T03:01:44.703Z,57.70
2023-03-04T03:02:44.978Z,57.00
2023-03-04T03:03:45.147Z,59.00
2023-03-04T03:04:45.448Z,58.50
2023-03-04T03:05:45.856Z,57.10
2023-03-04T03:06:46.042Z,57.20
2023-03-04T03:07:46.371Z,56.90
2023-03-04T03:08:46.720Z,56.90
2023-03-04T03:09:47.141Z,58.20
2023-03-04T03:10:47.356Z,58.40
2023-03-04T03:11:47.578Z,58.00
2023-03-04T03:12:47.787Z,58.20
2023-03-04T03:13:48.131Z,57.30
2023-03-04T03:14:48.448Z,58.10
2023-03-04T03:15:50.144Z,58.00
2023-03-04T03:16:49.043Z,57.50
2023-03-04T03:17:49.260Z,58.20
2023-03-04T03:18:49.584Z,58.50
2023-03-04T03:19:49.911Z,59.30
2023-03-04T03:20:50.218Z,58.00
2023-03-04T03:21:50.498Z,58.10
2023-03-04T03:22:50.716Z,57.60
2023-03-04T03:23:51.056Z,59.20
2023-03-04T03:24:51.435Z,58.70
2023-03-04T03:25:51.635Z,58.20
2023-03-04T03:26:51.958Z,58.50
2023-03-04T03:27:52.381Z,58.50
2023-03-04T03:28:52.550Z,57.90
2023-03-04T03:29:52.859Z,58.60
2023-03-04T03:30:53.203Z,59.30
2023-03-04T03:31:53.564Z,58.40
2023-03-04T03:32:53.778Z,58.60
2023-03-04T03:33:54.158Z,58.80
2023-03-04T03:34:54.330Z,58.40
2023-03-04T03:35:54.821Z,59.40
2023-03-04T03:36:55.007Z,58.20
2023-03-04T03:37:55.372Z,59.10
2023-03-04T03:38:55.553Z,59.20
2023-03-04T03:39:55.846Z,57.50
2023-03-04T03:40:56.138Z,58.40
2023-03-04T03:41:56.498Z,59.50
2023-03-04T03:42:56.680Z,59.50
2023-03-04T03:43:57.000Z,59.30
2023-03-04T03:44:57.329Z,58.70
2023-03-04T03:45:57.715Z,59.60
2023-03-04T03:46:57.990Z,60.30
2023-03-04T03:47:58.245Z,59.70
2023-03-04T03:48:58.946Z,59.70
2023-03-04T03:49:58.753Z,59.70
2023-03-04T03:50:59.045Z,59.80
2023-03-04T03:51:59.298Z,59.30
2023-03-04T03:52:59.643Z,60.70
2023-03-04T03:53:59.919Z,59.60
2023-03-04T03:55:01.790Z,58.90
2023-03-04T03:56:00.411Z,60.30
2023-03-04T03:57:00.766Z,60.00
2023-03-04T03:58:01.090Z,60.40
2023-03-04T03:59:01.488Z,61.60
2023-03-04T04:00:01.719Z,59.50
2023-03-04T04:01:01.959Z,60.00
2023-03-04T04:02:02.290Z,60.30
2023-03-04T04:03:02.607Z,60.60
2023-03-04T04:04:02.827Z,59.60
2023-03-04T04:05:03.049Z,59.50
2023-03-04T04:06:03.386Z,60.20
2023-03-04T04:07:03.598Z,59.20
2023-03-04T04:08:04.021Z,60.70
2023-03-04T04:09:05.157Z,60.20
2023-03-04T04:10:04.502Z,59.80
2023-03-04T04:11:04.829Z,61.10
2023-03-04T04:12:05.206Z,61.00
2023-03-04T04:13:05.446Z,62.10
2023-03-04T04:14:05.789Z,61.10
2023-03-04T04:15:06.047Z,61.30
2023-03-04T04:16:06.371Z,62.60
2023-03-04T04:17:06.575Z,61.40
2023-03-04T04:18:06.974Z,62.30
2023-03-04T04:19:07.252Z,61.60
2023-03-04T04:20:07.447Z,62.00
2023-03-04T04:21:07.684Z,62.40
2023-03-04T04:22:07.933Z,62.60
2023-03-04T04:23:08.183Z,61.20
2023-03-04T04:24:08.465Z,62.70
2023-03-04T04:25:08.710Z,61.00
2023-03-04T04:26:09.009Z,61.30
2023-03-04T04:27:09.371Z,62.10
2023-03-04T04:28:09.670Z,61.20
2023-03-04T04:29:09.845Z,61.10
2023-03-04T04:30:10.176Z,61.90
2023-03-04T04:31:10.505Z,63.00
2023-03-04T04:32:10.775Z,61.60
2023-03-04T04:33:11.033Z,60.90
2023-03-04T04:34:11.309Z,62.30
2023-03-04T04:35:11.560Z,61.80
2023-03-04T04:36:11.814Z,60.30
2023-03-04T04:37:12.225Z,60.60
2023-03-04T04:38:12.511Z,61.00
2023-03-04T04:39:12.724Z,62.10
2023-03-04T04:40:13.079Z,61.30
2023-03-04T04:41:13.283Z,61.30
2023-03-04T04:42:13.464Z,62.00
2023-03-04T04:43:13.859Z,63.10
2023-03-04T04:44:14.163Z,61.70
2023-03-04T04:45:14.550Z,61.00
2023-03-04T04:46:14.791Z,62.60
2023-03-04T04:47:15.109Z,62.20
2023-03-04T04:48:15.324Z,61.80
2023-03-04T04:49:15.590Z,62.50
2023-03-04T04:50:15.890Z,62.50
2023-03-04T04:51:16.207Z,63.30
2023-03-04T04:52:16.588Z,62.50
2023-03-04T04:53:16.865Z,62.10
2023-03-04T04:54:17.095Z,63.80
2023-03-04T04:55:17.352Z,62.20
2023-03-04T04:56:17.553Z,62.00
2023-03-04T04:57:17.869Z,63.10
2023-03-04T04:58:18.191Z,62.50
2023-03-04T04:59:18.510Z,61.40
2023-03-04T05:00:18.862Z,60.40
2023-03-04T05:01:19.225Z,60.70
2023-03-04T05:02:19.537Z,62.70
2023-03-04T05:03:21.460Z,62.00
2023-03-04T05:04:20.115Z,61.90
2023-03-04T05:05:20.427Z,61.20
2023-03-04T05:06:20.709Z,62.50
2023-03-04T05:07:20.969Z,62.40
2023-03-04T05:08:21.193Z,62.30
2023-03-04T05:09:21.569Z,62.80
2023-03-04T05:10:21.894Z,61.90
2023-03-04T05:11:22.130Z,63.20
2023-03-04T05:12:22.399Z,61.60
2023-03-04T05:13:22.711Z,62.10
2023-03-04T05:14:23.095Z,62.00
2023-03-04T05:15:23.256Z,61.90
2023-03-04T05:16:23.677Z,62.70
2023-03-04T05:17:23.941Z,61.50
2023-03-04T05:18:24.251Z,61.50
2023-03-04T05:19:24.564Z,60.20
2023-03-04T05:20:24.904Z,61.80
2023-03-04T05:21:25.296Z,61.80
2023-03-04T05:22:25.516Z,61.20
2023-03-04T05:23:25.681Z,61.60
2023-03-04T05:24:26.074Z,61.10
2023-03-04T05:25:26.342Z,59.30
2023-03-04T05:26:26.710Z,60.90
2023-03-04T05:27:26.912Z,60.20
2023-03-04T05:28:27.137Z,63.40
2023-03-04T05:29:27.469Z,60.90
2023-03-04T05:30:27.840Z,59.60
2023-03-04T05:31:29.027Z,59.90
2023-03-04T05:32:28.454Z,60.00
2023-03-04T05:33:28.687Z,59.30
2023-03-04T05:34:28.906Z,58.40
2023-03-04T05:35:29.283Z,59.50
2023-03-04T05:36:29.540Z,59.30
2023-03-04T05:37:29.681Z,58.80
2023-03-04T05:38:29.967Z,58.60
2023-03-04T05:39:30.248Z,59.50
2023-03-04T05:40:30.502Z,58.30
2023-03-04T05:41:30.829Z,59.60
2023-03-04T05:42:31.216Z,57.90
2023-03-04T05:43:31.437Z,59.10
2023-03-04T05:44:31.812Z,57.50
2023-03-04T05:45:32.177Z,58.60
2023-03-04T05:46:33.655Z,59.00
2023-03-04T05:47:32.750Z,57.90
2023-03-04T05:48:33.057Z,59.10
2023-03-04T05:49:33.296Z,58.60
2023-03-04T05:50:33.608Z,57.60
2023-03-04T05:51:33.866Z,57.70
2023-03-04T05:52:34.155Z,63.30
2023-03-04T05:53:34.420Z,57.70
2023-03-04T05:54:34.690Z,57.70
2023-03-04T05:55:34.963Z,56.90
2023-03-04T05:56:35.294Z,57.00
2023-03-04T05:57:35.516Z,57.30
2023-03-04T05:58:35.761Z,57.00
2023-03-04T05:59:36.037Z,57.40
2023-03-04T06:00:36.336Z,57.60
2023-03-04T06:01:36.640Z,56.00
2023-03-04T06:02:36.978Z,56.00
2023-03-04T06:03:37.295Z,55.60
2023-03-04T06:04:37.818Z,56.10
2023-03-04T06:05:37.736Z,54.70
2023-03-04T06:06:38.045Z,56.20
2023-03-04T06:07:38.295Z,56.40
2023-03-04T06:08:38.542Z,56.20
2023-03-04T06:09:38.836Z,55.60
2023-03-04T06:10:39.112Z,56.30
2023-03-04T06:11:39.449Z,56.10
2023-03-04T06:12:39.712Z,56.60
2023-03-04T06:13:39.929Z,57.60
2023-03-04T06:14:40.231Z,56.40
2023-03-04T06:15:40.494Z,55.30
2023-03-04T06:16:40.787Z,57.80
2023-03-04T06:17:42.272Z,57.50
2023-03-04T06:18:41.344Z,58.60
2023-03-04T06:19:41.638Z,58.30
2023-03-04T06:20:46.892Z,57.60
2023-03-04T06:21:42.181Z,57.80
2023-03-04T06:22:42.500Z,56.50
2023-03-04T06:23:42.698Z,57.40
2023-03-04T06:24:43.009Z,57.50
2023-03-04T06:25:43.254Z,57.60
2023-03-04T06:26:43.544Z,56.40
2023-03-04T06:27:43.836Z,57.20
2023-03-04T06:28:44.186Z,54.30
2023-03-04T06:29:44.416Z,53.60
2023-03-04T06:30:44.779Z,54.40
2023-03-04T06:31:45.057Z,55.40
2023-03-04T06:32:45.346Z,54.90
2023-03-04T06:33:45.660Z,54.60
2023-03-04T06:34:45.930Z,56.40
2023-03-04T06:35:46.252Z,56.60
2023-03-04T06:36:46.521Z,56.50
2023-03-04T06:37:46.768Z,56.70
2023-03-04T06:38:47.106Z,57.60
2023-03-04T06:39:47.342Z,58.00
2023-03-04T06:40:47.650Z,57.40
2023-03-04T06:41:48.753Z,57.80
2023-03-04T06:42:48.153Z,59.30
2023-03-04T06:43:48.459Z,59.20
2023-03-04T06:44:48.733Z,58.90
2023-03-04T06:45:49.017Z,60.10
2023-03-04T06:46:49.293Z,59.80
2023-03-04T06:47:49.556Z,59.60
2023-03-04T06:48:49.875Z,60.30
2023-03-04T06:49:50.132Z,58.50
2023-03-04T06:50:50.499Z,60.20
2023-03-04T06:51:50.717Z,61.20
2023-03-04T06:52:51.025Z,60.20
2023-03-04T06:53:51.298Z,61.10
2023-03-04T06:54:51.587Z,60.40
2023-03-04T06:55:51.857Z,60.20
2023-03-04T06:56:52.139Z,59.40
2023-03-04T06:57:52.410Z,60.70
2023-03-04T06:58:52.688Z,67.80
2023-03-04T06:59:52.947Z,64.00
2023-03-04T07:00:53.760Z,57.30
2023-03-04T07:01:53.496Z,57.50
2023-03-04T07:02:55.181Z,59.20
2023-03-04T07:03:54.047Z,59.70
2023-03-04T07:04:54.354Z,59.00
2023-03-04T07:05:54.659Z,57.10
2023-03-04T07:06:55.091Z,56.10
2023-03-04T07:07:55.269Z,56.80
2023-03-04T07:08:55.522Z,56.50
2023-03-04T07:09:55.842Z,57.40
2023-03-04T07:10:56.225Z,56.40
2023-03-04T07:11:56.446Z,57.00
2023-03-04T07:12:56.740Z,55.80
2023-03-04T07:13:57.022Z,54.80
2023-03-04T07:14:57.324Z,54.70
2023-03-04T07:15:57.664Z,55.40
2023-03-04T07:16:57.960Z,54.70
2023-03-04T07:17:58.266Z,54.50
2023-03-04T07:18:58.908Z,54.40
2023-03-04T07:19:58.887Z,55.90
2023-03-04T07:20:59.168Z,54.50
2023-03-04T07:21:59.428Z,54.90
2023-03-04T07:22:59.746Z,56.00
2023-03-04T07:24:00.103Z,54.10
2023-03-04T07:25:00.326Z,55.40
2023-03-04T07:26:00.666Z,55.60
2023-03-04T07:27:00.920Z,55.90
2023-03-04T07:28:01.232Z,54.70
2023-03-04T07:29:01.655Z,55.80
2023-03-04T07:30:01.792Z,54.90
2023-03-04T07:31:02.091Z,55.30
2023-03-04T07:32:02.500Z,55.70
2023-03-04T07:33:02.639Z,54.60
2023-03-04T07:34:02.938Z,56.10
2023-03-04T07:35:03.245Z,55.80
2023-03-04T07:36:03.531Z,54.40
2023-03-04T07:37:03.847Z,55.30
2023-03-04T07:38:04.166Z,55.80
2023-03-04T07:39:04.453Z,54.80
2023-03-04T07:40:04.702Z,55.50
2023-03-04T07:41:05.007Z,54.80
2023-03-04T07:42:05.304Z,55.10
2023-03-04T07:43:05.581Z,55.10
2023-03-04T07:44:05.873Z,56.40
2023-03-04T07:45:06.154Z,55.90
2023-03-04T07:46:06.477Z,55.20
2023-03-04T07:47:06.798Z,55.20
2023-03-04T07:48:07.078Z,55.80
2023-03-04T07:49:07.430Z,55.90
2023-03-04T07:50:07.660Z,55.70
2023-03-04T07:51:07.952Z,56.70
2023-03-04T07:52:08.251Z,56.50
2023-03-04T07:53:08.599Z,55.80
2023-03-04T07:54:08.824Z,54.80
2023-03-04T07:55:09.139Z,55.60
2023-03-04T07:56:09.439Z,56.40
2023-03-04T07:57:09.714Z,55.00
2023-03-04T07:58:10.090Z,55.50
2023-03-04T07:59:10.357Z,55.70
2023-03-04T08:00:10.678Z,55.10
2023-03-04T08:01:10.960Z,54.40
2023-03-04T08:02:11.306Z,55.70
2023-03-04T08:03:11.560Z,56.90
2023-03-04T08:04:11.843Z,54.50
2023-03-04T08:05:12.155Z,55.80
2023-03-04T08:06:12.419Z,54.50
2023-03-04T08:07:12.725Z,53.90
2023-03-04T08:08:13.009Z,53.80
2023-03-04T08:09:13.308Z,52.80
2023-03-04T08:10:13.607Z,53.60
2023-03-04T08:11:13.885Z,55.80
2023-03-04T08:12:14.188Z,54.20
2023-03-04T08:13:14.469Z,54.60
2023-03-04T08:14:14.782Z,53.40
2023-03-04T08:15:15.049Z,54.50
2023-03-04T08:16:15.419Z,54.50
2023-03-04T08:17:15.630Z,54.00
2023-03-04T08:18:16.007Z,54.30
2023-03-04T08:19:16.240Z,54.80
2023-03-04T08:20:16.552Z,55.60
2023-03-04T08:21:16.828Z,53.50
2023-03-04T08:22:17.161Z,54.90
2023-03-04T08:23:17.395Z,54.20
2023-03-04T08:24:17.673Z,55.40
2023-03-04T08:25:17.953Z,54.80
2023-03-04T08:26:18.264Z,55.30
2023-03-04T08:27:18.540Z,55.80
2023-03-04T08:28:18.830Z,54.50
2023-03-04T08:29:19.141Z,54.10
2023-03-04T08:30:19.441Z,54.90
2023-03-04T08:31:19.793Z,56.00
2023-03-04T08:32:20.256Z,56.60
2023-03-04T08:33:20.367Z,54.80
2023-03-04T08:34:20.663Z,55.60
2023-03-04T08:35:20.960Z,55.80
2023-03-04T08:36:21.289Z,54.90
2023-03-04T08:37:21.547Z,55.70
2023-03-04T08:38:21.869Z,54.40
2023-03-04T08:39:22.676Z,54.60
2023-03-04T08:40:22.446Z,55.60
2023-03-04T08:41:22.838Z,55.30
2023-03-04T08:42:23.089Z,55.70
2023-03-04T08:43:23.379Z,55.20
2023-03-04T08:44:26.402Z,55.10
2023-03-04T08:45:24.025Z,55.80
2023-03-04T08:46:24.341Z,55.90
2023-03-04T08:47:24.605Z,54.90
2023-03-04T08:48:24.892Z,55.30
2023-03-04T08:49:25.258Z,54.90
2023-03-04T08:50:25.489Z,54.80
2023-03-04T08:51:25.820Z,55.40
2023-03-04T08:52:26.045Z,55.60
2023-03-04T08:53:26.420Z,55.10
2023-03-04T08:54:26.650Z,55.80
2023-03-04T08:55:26.916Z,52.50
2023-03-04T08:56:27.200Z,52.40
2023-03-04T08:57:27.625Z,51.90
2023-03-04T08:58:27.783Z,53.50
2023-03-04T08:59:28.031Z,53.70
2023-03-04T09:00:28.281Z,54.10
2023-03-04T09:01:28.569Z,53.60
2023-03-04T09:02:28.825Z,53.10
2023-03-04T09:03:30.092Z,53.10
2023-03-04T09:04:29.382Z,55.70
2023-03-04T09:05:29.676Z,54.60
2023-03-04T09:06:30.901Z,54.50
2023-03-04T09:07:30.215Z,54.70
2023-03-04T09:08:31.022Z,54.30
2023-03-04T09:09:30.758Z,54.20
2023-03-04T09:10:31.053Z,53.40
2023-03-04T09:11:31.349Z,54.00
2023-03-04T09:12:31.650Z,53.30
2023-03-04T09:13:31.944Z,53.20
2023-03-04T09:14:32.244Z,52.40
2023-03-04T09:15:32.527Z,52.50
2023-03-04T09:16:32.818Z,51.60
2023-03-04T09:17:33.018Z,51.80
2023-03-04T09:18:33.277Z,51.30
2023-03-04T09:19:33.602Z,50.10
2023-03-04T09:20:33.928Z,52.10
2023-03-04T09:21:34.136Z,51.50
2023-03-04T09:22:34.488Z,51.00
2023-03-04T09:23:34.707Z,52.00
2023-03-04T09:24:34.997Z,53.30
2023-03-04T09:25:35.261Z,49.20
2023-03-04T09:26:35.592Z,50.40
2023-03-04T09:27:35.817Z,49.00
2023-03-04T09:28:36.099Z,48.50
2023-03-04T09:29:36.376Z,49.80
2023-03-04T09:30:36.661Z,52.00
2023-03-04T09:31:37.034Z,50.30
2023-03-04T09:32:37.252Z,51.90
2023-03-04T09:33:37.554Z,51.30
2023-03-04T09:34:37.836Z,52.00
2023-03-04T09:35:38.406Z,53.70
2023-03-04T09:36:38.456Z,51.10
2023-03-04T09:37:41.208Z,51.50
2023-03-04T09:38:38.949Z,51.90
2023-03-04T09:39:39.204Z,50.10
2023-03-04T09:40:39.578Z,50.90
2023-03-04T09:41:39.835Z,49.70
2023-03-04T09:42:40.117Z,48.70
2023-03-04T09:43:40.379Z,49.20
2023-03-04T09:44:40.655Z,50.30
2023-03-04T09:45:41.867Z,49.60
2023-03-04T09:46:41.240Z,49.70
2023-03-04T09:47:41.478Z,53.90
2023-03-04T09:48:41.822Z,50.30
2023-03-04T09:49:42.085Z,48.70
2023-03-04T09:50:42.333Z,48.60
2023-03-04T09:51:42.634Z,49.60
2023-03-04T09:52:42.872Z,49.70
2023-03-04T09:53:43.120Z,48.30
2023-03-04T09:54:43.464Z,47.60
2023-03-04T09:55:43.680Z,49.20
2023-03-04T09:56:43.938Z,49.50
2023-03-04T09:57:44.208Z,48.20
2023-03-04T09:58:44.494Z,48.70
2023-03-04T09:59:44.824Z,49.50
2023-03-04T10:00:45.104Z,49.00
2023-03-04T10:01:45.356Z,49.70
2023-03-04T10:02:45.617Z,49.50
2023-03-04T10:03:45.894Z,50.60
2023-03-04T10:04:46.168Z,49.80
2023-03-04T10:05:46.410Z,50.20
2023-03-04T10:06:46.696Z,48.70
2023-03-04T10:07:46.973Z,48.40
2023-03-04T10:08:47.228Z,48.70
2023-03-04T10:09:47.556Z,48.70
2023-03-04T10:10:47.899Z,48.40
2023-03-04T10:11:48.129Z,47.20
2023-03-04T10:12:48.445Z,48.60
2023-03-04T10:13:49.709Z,48.10
2023-03-04T10:14:48.988Z,46.90
2023-03-04T10:15:49.272Z,47.30
2023-03-04T10:16:49.532Z,47.30
2023-03-04T10:17:49.829Z,46.70
2023-03-04T10:18:50.060Z,48.10
2023-03-04T10:19:50.373Z,47.20
2023-03-04T10:20:50.625Z,46.30
2023-03-04T10:21:50.899Z,46.50
2023-03-04T10:22:51.188Z,45.90
2023-03-04T10:23:51.466Z,46.20
2023-03-04T10:24:51.742Z,45.90
2023-03-04T10:25:52.085Z,45.60
2023-03-04T10:26:52.298Z,45.90
2023-03-04T10:27:52.606Z,45.40
2023-03-04T10:28:52.865Z,44.80
2023-03-04T10:29:53.150Z,45.50
2023-03-04T10:30:53.421Z,45.50
2023-03-04T10:31:53.842Z,45.90
2023-03-04T10:32:53.897Z,44.50
2023-03-04T10:33:54.172Z,44.70
2023-03-04T10:34:54.473Z,43.10
2023-03-04T10:35:54.939Z,43.00
2023-03-04T10:36:55.022Z,43.60
2023-03-04T10:37:55.364Z,42.80
2023-03-04T10:38:55.583Z,42.40
2023-03-04T10:39:55.885Z,43.50
2023-03-04T10:40:56.149Z,42.80
2023-03-04T10:41:56.538Z,43.80
2023-03-04T10:42:56.639Z,44.00
2023-03-04T10:43:56.947Z,43.80
2023-03-04T10:44:57.188Z,41.60
2023-03-04T10:45:57.525Z,43.50
2023-03-04T10:46:57.715Z,46.80
2023-03-04T10:47:57.986Z,44.20
2023-03-04T10:48:58.309Z,45.00
2023-03-04T10:49:58.611Z,43.10
2023-03-04T10:50:58.866Z,42.30
2023-03-04T10:51:59.140Z,43.30
2023-03-04T10:52:59.489Z,43.10
2023-03-04T10:53:59.740Z,41.40
2023-03-04T10:55:00.020Z,43.40
2023-03-04T10:56:00.291Z,43.50
2023-03-04T10:57:00.573Z,42.50
2023-03-04T10:58:00.832Z,42.40
2023-03-04T10:59:01.090Z,42.60
2023-03-04T11:00:01.439Z,42.10
2023-03-04T11:01:01.829Z,41.80
2023-03-04T11:02:01.920Z,41.50
2023-03-04T11:03:02.191Z,40.60
2023-03-04T11:04:02.487Z,40.60
2023-03-04T11:05:02.774Z,38.90
2023-03-04T11:06:03.087Z,39.00
2023-03-04T11:07:03.277Z,40.70
2023-03-04T11:08:03.851Z,40.40
2023-03-04T11:09:03.804Z,41.70
2023-03-04T11:10:04.149Z,41.60
2023-03-04T11:11:04.439Z,43.20
2023-03-04T11:12:04.735Z,40.90
2023-03-04T11:13:04.975Z,40.80
2023-03-04T11:14:05.234Z,40.10
2023-03-04T11:15:05.480Z,39.20
2023-03-04T11:16:05.747Z,40.30
2023-03-04T11:17:06.017Z,41.30
2023-03-04T11:18:06.318Z,39.00
2023-03-04T11:19:06.548Z,40.10
2023-03-04T11:20:06.829Z,38.40
2023-03-04T11:21:07.106Z,37.40
2023-03-04T11:22:07.433Z,37.20
2023-03-04T11:23:07.656Z,37.70
2023-03-04T11:24:13.359Z,37.80
2023-03-04T11:25:09.243Z,37.40
2023-03-04T11:26:08.522Z,37.50
2023-03-04T11:27:08.797Z,38.30
2023-03-04T11:28:11.370Z,38.00
2023-03-04T11:29:09.305Z,37.60
2023-03-04T11:30:09.588Z,36.30
2023-03-04T11:31:09.808Z,36.30
2023-03-04T11:32:10.209Z,34.40
2023-03-04T11:33:10.351Z,33.00
2023-03-04T11:34:13.268Z,35.00
2023-03-04T11:35:10.880Z,34.00
2023-03-04T11:36:11.307Z,33.30
2023-03-04T11:37:11.395Z,34.70
2023-03-04T11:38:11.669Z,34.40
2023-03-04T11:39:11.931Z,33.30
2023-03-04T11:40:12.243Z,32.50
2023-03-04T11:41:12.437Z,31.10
2023-03-04T11:42:12.686Z,29.90
2023-03-04T11:43:12.961Z,29.60
2023-03-04T11:44:13.345Z,30.90
2023-03-04T11:45:27.743Z,30.50
2023-03-04T11:46:14.833Z,31.30
2023-03-04T11:47:14.269Z,31.30
2023-03-04T11:48:14.400Z,31.50
2023-03-04T11:49:17.802Z,32.30
2023-03-04T11:50:14.969Z,32.10
2023-03-04T11:51:15.192Z,31.50
2023-03-04T11:52:15.461Z,30.30
2023-03-04T11:53:15.731Z,30.50
2023-03-04T11:54:16.023Z,30.30
2023-03-04T11:55:16.297Z,29.20
2023-03-04T11:56:16.573Z,30.50
2023-03-04T11:57:16.820Z,30.00
2023-03-04T11:58:17.181Z,30.00
2023-03-04T11:59:17.408Z,29.50
2023-03-04T12:00:17.703Z,29.50
2023-03-04T12:01:18.090Z,30.10
2023-03-04T12:02:18.443Z,29.40
2023-03-04T12:03:18.596Z,27.20
2023-03-04T12:04:19.573Z,26.50
2023-03-04T12:05:19.425Z,27.00
2023-03-04T12:06:19.401Z,25.80
2023-03-04T12:07:19.701Z,26.30
2023-03-04T12:08:20.270Z,26.30
2023-03-04T12:09:20.423Z,26.50
2023-03-04T12:10:20.610Z,26.60
2023-03-04T12:11:20.807Z,25.60
2023-03-04T12:12:21.084Z,25.50
2023-03-04T12:13:21.363Z,26.40
2023-03-04T12:14:22.914Z,27.00
2023-03-04T12:15:21.896Z,25.80
2023-03-04T12:16:22.236Z,26.50
2023-03-04T12:17:22.424Z,26.10
2023-03-04T12:18:22.747Z,25.80
2023-03-04T12:19:22.966Z,25.80
2023-03-04T12:20:23.259Z,25.90
2023-03-04T12:21:23.537Z,25.10
2023-03-04T12:22:23.815Z,24.20
2023-03-04T12:23:24.029Z,24.40
2023-03-04T12:24:24.286Z,23.80
2023-03-04T12:25:24.578Z,23.80
2023-03-04T12:26:24.858Z,23.30
2023-03-04T12:27:25.131Z,23.70
2023-03-04T12:28:25.411Z,23.40
2023-03-04T12:29:25.651Z,22.80
2023-03-04T12:30:25.967Z,22.80
2023-03-04T12:31:26.277Z,22.50
2023-03-04T12:32:26.533Z,22.40
2023-03-04T12:33:26.821Z,23.20
2023-03-04T12:34:27.085Z,24.60
2023-03-04T12:35:27.413Z,23.60
2023-03-04T12:36:27.666Z,23.00
2023-03-04T12:37:27.928Z,23.70
2023-03-04T12:38:28.240Z,24.10
2023-03-04T12:39:28.449Z,24.70
2023-03-04T12:40:28.772Z,24.20
2023-03-04T12:41:29.020Z,23.10
2023-03-04T12:42:29.282Z,23.30
2023-03-04T12:43:29.548Z,22.40
2023-03-04T12:44:29.816Z,22.60
2023-03-04T12:45:30.052Z,26.50
2023-03-04T12:46:30.373Z,23.80
2023-03-04T12:47:30.655Z,23.90
2023-03-04T12:48:30.921Z,24.70
2023-03-04T12:49:31.235Z,23.10
2023-03-04T12:50:31.516Z,23.40
2023-03-04T12:51:31.736Z,22.50
2023-03-04T12:52:32.063Z,27.40
2023-03-04T12:53:32.316Z,23.30
2023-03-04T12:54:32.634Z,23.40
2023-03-04T12:55:32.817Z,24.40
2023-03-04T12:56:33.139Z,24.30